Kerens, West Virginia
Current Conditions -  °F | °C
As of 4:51 AM on Wednesday 26 Nov 2014 (Local Time) from KEKN Reporting Station
Light Snow Light Snow  
Wind Chill: 34°   Ceiling: 4600
Heat Index: 34°   Visibility: 7mi
Dew Point: 30°   Wind: 3mph
Humidity: 85%   Direction: NA
Pressure: 30.02"   Gusts: NA
Location:  39.01°N, 79.81°W
Report Text: KEKN 260951Z AUTO VRB03KT 7SM -SN SCT026 OVC046 01/M01 A3002 RMK AO2 SNB46 SLP181 P0000 T00111011 TSNO
Loading
Personal Weather Stations






























Interactive Weather Map New forecast layout! Learn more

10-Day Weather Forecast

Advertisements
Track Severe Weather on mobile